sensor_id;sensor_type;location;lat;lon;timestamp;P1;durP1;ratioP1;P2;durP2;ratioP2
84254;SDS011;74400;44.692;18.998;2024-02-23T00:02:09;6.07;;;2.83;;
84254;SDS011;74400;44.692;18.998;2024-02-23T00:04:35;5.43;;;3.15;;
84254;SDS011;74400;44.692;18.998;2024-02-23T00:07:00;4.43;;;2.92;;
84254;SDS011;74400;44.692;18.998;2024-02-23T00:09:28;3.92;;;2.80;;
84254;SDS011;74400;44.692;18.998;2024-02-23T00:11:54;5.93;;;3.38;;
84254;SDS011;74400;44.692;18.998;2024-02-23T00:14:19;4.70;;;2.92;;
84254;SDS011;74400;44.692;18.998;2024-02-23T00:16:46;6.45;;;3.38;;
84254;SDS011;74400;44.692;18.998;2024-02-23T00:19:11;5.03;;;3.10;;
84254;SDS011;74400;44.692;18.998;2024-02-23T00:21:38;5.38;;;3.72;;
84254;SDS011;74400;44.692;18.998;2024-02-23T00:24:05;5.63;;;3.20;;
84254;SDS011;74400;44.692;18.998;2024-02-23T00:26:31;5.78;;;3.53;;
84254;SDS011;74400;44.692;18.998;2024-02-23T00:28:57;4.72;;;3.00;;
84254;SDS011;74400;44.692;18.998;2024-02-23T00:31:22;5.22;;;3.22;;
84254;SDS011;74400;44.692;18.998;2024-02-23T00:33:48;3.50;;;3.08;;
84254;SDS011;74400;44.692;18.998;2024-02-23T00:36:14;3.97;;;3.30;;
84254;SDS011;74400;44.692;18.998;2024-02-23T00:38:40;4.55;;;3.42;;
84254;SDS011;74400;44.692;18.998;2024-02-23T00:41:05;4.78;;;3.25;;
84254;SDS011;74400;44.692;18.998;2024-02-23T00:43:41;3.80;;;3.15;;
84254;SDS011;74400;44.692;18.998;2024-02-23T00:46:07;5.63;;;3.47;;
84254;SDS011;74400;44.692;18.998;2024-02-23T00:48:33;3.97;;;3.40;;
84254;SDS011;74400;44.692;18.998;2024-02-23T00:50:59;5.05;;;3.45;;
84254;SDS011;74400;44.692;18.998;2024-02-23T00:53:26;6.47;;;3.63;;
84254;SDS011;74400;44.692;18.998;2024-02-23T00:55:51;4.03;;;3.30;;
84254;SDS011;74400;44.692;18.998;2024-02-23T00:58:17;5.03;;;3.45;;
84254;SDS011;74400;44.692;18.998;2024-02-23T01:00:43;5.05;;;3.90;;
84254;SDS011;74400;44.692;18.998;2024-02-23T01:03:09;5.78;;;3.80;;
84254;SDS011;74400;44.692;18.998;2024-02-23T01:05:35;4.88;;;3.03;;
84254;SDS011;74400;44.692;18.998;2024-02-23T01:08:01;6.32;;;3.80;;
84254;SDS011;74400;44.692;18.998;2024-02-23T01:10:26;6.32;;;3.70;;
84254;SDS011;74400;44.692;18.998;2024-02-23T01:12:52;4.97;;;3.58;;
84254;SDS011;74400;44.692;18.998;2024-02-23T01:15:18;5.80;;;3.88;;
84254;SDS011;74400;44.692;18.998;2024-02-23T01:17:43;5.10;;;3.88;;
84254;SDS011;74400;44.692;18.998;2024-02-23T01:20:09;7.15;;;3.80;;
84254;SDS011;74400;44.692;18.998;2024-02-23T01:22:35;5.28;;;3.30;;
84254;SDS011;74400;44.692;18.998;2024-02-23T01:25:01;5.70;;;3.30;;
84254;SDS011;74400;44.692;18.998;2024-02-23T01:27:26;5.10;;;3.80;;
84254;SDS011;74400;44.692;18.998;2024-02-23T01:29:52;5.53;;;3.70;;
84254;SDS011;74400;44.692;18.998;2024-02-23T01:32:17;4.20;;;3.22;;
84254;SDS011;74400;44.692;18.998;2024-02-23T01:34:43;3.90;;;3.40;;
84254;SDS011;74400;44.692;18.998;2024-02-23T01:37:09;5.45;;;3.50;;
84254;SDS011;74400;44.692;18.998;2024-02-23T01:39:35;5.60;;;3.72;;
84254;SDS011;74400;44.692;18.998;2024-02-23T01:42:00;5.00;;;4.15;;
84254;SDS011;74400;44.692;18.998;2024-02-23T01:44:26;6.70;;;3.60;;
84254;SDS011;74400;44.692;18.998;2024-02-23T01:46:51;7.68;;;3.90;;
84254;SDS011;74400;44.692;18.998;2024-02-23T01:49:17;4.95;;;3.45;;
84254;SDS011;74400;44.692;18.998;2024-02-23T01:51:43;5.07;;;3.30;;
84254;SDS011;74400;44.692;18.998;2024-02-23T01:54:09;5.53;;;3.65;;
84254;SDS011;74400;44.692;18.998;2024-02-23T01:56:35;4.03;;;3.40;;
84254;SDS011;74400;44.692;18.998;2024-02-23T01:59:02;6.25;;;3.67;;
84254;SDS011;74400;44.692;18.998;2024-02-23T02:01:29;5.00;;;3.75;;
84254;SDS011;74400;44.692;18.998;2024-02-23T02:03:55;4.18;;;3.55;;
84254;SDS011;74400;44.692;18.998;2024-02-23T02:06:22;6.40;;;4.15;;
84254;SDS011;74400;44.692;18.998;2024-02-23T02:08:48;5.40;;;3.53;;
84254;SDS011;74400;44.692;18.998;2024-02-23T02:11:14;6.47;;;3.65;;
84254;SDS011;74400;44.692;18.998;2024-02-23T02:13:40;4.00;;;3.60;;
84254;SDS011;74400;44.692;18.998;2024-02-23T02:16:06;4.65;;;3.88;;
84254;SDS011;74400;44.692;18.998;2024-02-23T02:18:32;7.32;;;3.60;;
84254;SDS011;74400;44.692;18.998;2024-02-23T02:20:57;4.53;;;3.45;;
84254;SDS011;74400;44.692;18.998;2024-02-23T02:23:24;4.63;;;3.58;;
84254;SDS011;74400;44.692;18.998;2024-02-23T02:25:57;4.00;;;3.50;;
84254;SDS011;74400;44.692;18.998;2024-02-23T02:28:24;5.88;;;3.80;;
84254;SDS011;74400;44.692;18.998;2024-02-23T02:30:51;3.67;;;3.28;;
84254;SDS011;74400;44.692;18.998;2024-02-23T02:33:20;5.15;;;3.50;;
84254;SDS011;74400;44.692;18.998;2024-02-23T02:35:46;4.82;;;3.47;;
84254;SDS011;74400;44.692;18.998;2024-02-23T02:38:13;4.80;;;3.22;;
84254;SDS011;74400;44.692;18.998;2024-02-23T02:40:40;5.05;;;3.65;;
84254;SDS011;74400;44.692;18.998;2024-02-23T02:43:05;6.28;;;3.58;;
84254;SDS011;74400;44.692;18.998;2024-02-23T02:45:32;5.13;;;3.28;;
84254;SDS011;74400;44.692;18.998;2024-02-23T02:47:59;5.07;;;3.60;;
84254;SDS011;74400;44.692;18.998;2024-02-23T02:50:25;4.05;;;3.60;;
84254;SDS011;74400;44.692;18.998;2024-02-23T02:52:51;3.80;;;3.28;;
84254;SDS011;74400;44.692;18.998;2024-02-23T02:55:17;5.13;;;3.17;;
84254;SDS011;74400;44.692;18.998;2024-02-23T02:57:43;4.80;;;3.28;;
84254;SDS011;74400;44.692;18.998;2024-02-23T03:00:10;6.03;;;3.30;;
84254;SDS011;74400;44.692;18.998;2024-02-23T03:02:36;7.53;;;3.70;;
84254;SDS011;74400;44.692;18.998;2024-02-23T03:05:02;4.40;;;3.20;;
84254;SDS011;74400;44.692;18.998;2024-02-23T03:07:27;4.93;;;3.20;;
84254;SDS011;74400;44.692;18.998;2024-02-23T03:09:53;4.47;;;3.30;;
84254;SDS011;74400;44.692;18.998;2024-02-23T03:12:19;3.80;;;3.03;;
84254;SDS011;74400;44.692;18.998;2024-02-23T03:14:45;4.28;;;3.20;;
84254;SDS011;74400;44.692;18.998;2024-02-23T03:17:10;4.03;;;3.47;;
84254;SDS011;74400;44.692;18.998;2024-02-23T03:19:36;4.78;;;3.20;;
84254;SDS011;74400;44.692;18.998;2024-02-23T03:22:02;5.88;;;3.78;;
84254;SDS011;74400;44.692;18.998;2024-02-23T03:24:28;5.32;;;3.15;;
84254;SDS011;74400;44.692;18.998;2024-02-23T03:26:54;5.57;;;2.90;;
84254;SDS011;74400;44.692;18.998;2024-02-23T03:29:21;5.15;;;3.63;;
84254;SDS011;74400;44.692;18.998;2024-02-23T03:31:49;6.97;;;3.00;;
84254;SDS011;74400;44.692;18.998;2024-02-23T03:34:16;3.15;;;2.78;;
84254;SDS011;74400;44.692;18.998;2024-02-23T03:36:42;5.45;;;3.20;;
84254;SDS011;74400;44.692;18.998;2024-02-23T03:39:08;3.40;;;3.00;;
84254;SDS011;74400;44.692;18.998;2024-02-23T03:41:34;4.97;;;3.17;;
84254;SDS011;74400;44.692;18.998;2024-02-23T03:43:59;4.63;;;2.90;;
84254;SDS011;74400;44.692;18.998;2024-02-23T03:46:25;3.58;;;3.05;;
84254;SDS011;74400;44.692;18.998;2024-02-23T03:48:50;3.47;;;3.00;;
84254;SDS011;74400;44.692;18.998;2024-02-23T03:51:17;4.30;;;2.88;;
84254;SDS011;74400;44.692;18.998;2024-02-23T03:53:43;4.10;;;2.90;;
84254;SDS011;74400;44.692;18.998;2024-02-23T03:56:08;4.05;;;2.40;;
84254;SDS011;74400;44.692;18.998;2024-02-23T03:58:34;4.18;;;3.10;;
84254;SDS011;74400;44.692;18.998;2024-02-23T04:01:00;4.03;;;2.97;;
84254;SDS011;74400;44.692;18.998;2024-02-23T04:03:25;4.68;;;2.90;;
84254;SDS011;74400;44.692;18.998;2024-02-23T04:05:51;4.15;;;2.70;;
84254;SDS011;74400;44.692;18.998;2024-02-23T04:08:16;5.70;;;2.83;;
84254;SDS011;74400;44.692;18.998;2024-02-23T04:10:42;3.65;;;2.60;;
84254;SDS011;74400;44.692;18.998;2024-02-23T04:13:08;4.15;;;2.67;;
84254;SDS011;74400;44.692;18.998;2024-02-23T04:15:34;4.10;;;2.88;;
84254;SDS011;74400;44.692;18.998;2024-02-23T04:17:59;4.22;;;2.50;;
84254;SDS011;74400;44.692;18.998;2024-02-23T04:20:25;4.30;;;3.22;;
84254;SDS011;74400;44.692;18.998;2024-02-23T04:22:50;2.83;;;2.45;;
84254;SDS011;74400;44.692;18.998;2024-02-23T04:25:16;5.03;;;2.60;;
84254;SDS011;74400;44.692;18.998;2024-02-23T04:27:42;3.20;;;2.40;;
84254;SDS011;74400;44.692;18.998;2024-02-23T04:30:09;6.10;;;2.80;;
84254;SDS011;74400;44.692;18.998;2024-02-23T04:32:36;8.35;;;2.83;;
84254;SDS011;74400;44.692;18.998;2024-02-23T04:35:02;4.32;;;2.60;;
84254;SDS011;74400;44.692;18.998;2024-02-23T04:37:27;3.95;;;2.65;;
84254;SDS011;74400;44.692;18.998;2024-02-23T04:39:53;2.60;;;2.20;;
84254;SDS011;74400;44.692;18.998;2024-02-23T04:42:19;3.75;;;2.58;;
84254;SDS011;74400;44.692;18.998;2024-02-23T04:44:44;2.30;;;2.10;;
84254;SDS011;74400;44.692;18.998;2024-02-23T04:47:11;2.78;;;2.30;;
84254;SDS011;74400;44.692;18.998;2024-02-23T04:49:36;3.10;;;2.65;;
84254;SDS011;74400;44.692;18.998;2024-02-23T04:52:02;2.50;;;2.22;;
84254;SDS011;74400;44.692;18.998;2024-02-23T04:54:30;2.40;;;2.20;;
84254;SDS011;74400;44.692;18.998;2024-02-23T04:56:56;3.60;;;2.38;;
84254;SDS011;74400;44.692;18.998;2024-02-23T04:59:21;2.70;;;2.50;;
84254;SDS011;74400;44.692;18.998;2024-02-23T05:01:47;3.70;;;2.50;;
84254;SDS011;74400;44.692;18.998;2024-02-23T05:04:13;2.60;;;2.40;;
84254;SDS011;74400;44.692;18.998;2024-02-23T05:06:38;2.42;;;2.22;;
84254;SDS011;74400;44.692;18.998;2024-02-23T05:09:04;3.83;;;2.60;;
84254;SDS011;74400;44.692;18.998;2024-02-23T05:11:34;4.15;;;2.50;;
84254;SDS011;74400;44.692;18.998;2024-02-23T05:14:00;2.55;;;2.20;;
84254;SDS011;74400;44.692;18.998;2024-02-23T05:16:26;2.72;;;2.50;;
84254;SDS011;74400;44.692;18.998;2024-02-23T05:18:51;4.30;;;2.50;;
84254;SDS011;74400;44.692;18.998;2024-02-23T05:21:17;3.53;;;2.40;;
84254;SDS011;74400;44.692;18.998;2024-02-23T05:23:42;4.10;;;2.65;;
84254;SDS011;74400;44.692;18.998;2024-02-23T05:26:08;3.63;;;2.65;;
84254;SDS011;74400;44.692;18.998;2024-02-23T05:28:35;4.75;;;2.75;;
84254;SDS011;74400;44.692;18.998;2024-02-23T05:31:04;3.03;;;2.53;;
84254;SDS011;74400;44.692;18.998;2024-02-23T05:33:30;3.65;;;3.05;;
84254;SDS011;74400;44.692;18.998;2024-02-23T05:35:55;3.85;;;2.42;;
84254;SDS011;74400;44.692;18.998;2024-02-23T05:38:21;4.72;;;2.85;;
84254;SDS011;74400;44.692;18.998;2024-02-23T05:40:47;3.83;;;2.77;;
84254;SDS011;74400;44.692;18.998;2024-02-23T05:43:13;3.75;;;2.38;;
84254;SDS011;74400;44.692;18.998;2024-02-23T05:45:40;5.60;;;2.70;;
84254;SDS011;74400;44.692;18.998;2024-02-23T05:48:06;4.78;;;2.47;;
84254;SDS011;74400;44.692;18.998;2024-02-23T05:50:37;3.30;;;3.00;;
84254;SDS011;74400;44.692;18.998;2024-02-23T05:56:35;4.43;;;2.85;;
84254;SDS011;74400;44.692;18.998;2024-02-23T05:59:02;3.85;;;3.20;;
84254;SDS011;74400;44.692;18.998;2024-02-23T06:01:28;4.60;;;3.10;;
84254;SDS011;74400;44.692;18.998;2024-02-23T06:10:17;5.63;;;3.08;;
84254;SDS011;74400;44.692;18.998;2024-02-23T06:12:43;6.00;;;3.33;;
84254;SDS011;74400;44.692;18.998;2024-02-23T06:17:38;8.48;;;3.05;;
84254;SDS011;74400;44.692;18.998;2024-02-23T06:20:05;4.15;;;3.47;;
84254;SDS011;74400;44.692;18.998;2024-02-23T06:22:33;5.95;;;3.75;;
84254;SDS011;74400;44.692;18.998;2024-02-23T06:27:57;5.78;;;3.20;;
84254;SDS011;74400;44.692;18.998;2024-02-23T06:30:23;7.38;;;3.88;;
84254;SDS011;74400;44.692;18.998;2024-02-23T06:32:49;4.38;;;3.40;;
84254;SDS011;74400;44.692;18.998;2024-02-23T06:35:14;4.60;;;3.30;;
84254;SDS011;74400;44.692;18.998;2024-02-23T06:41:16;14.05;;;7.75;;
84254;SDS011;74400;44.692;18.998;2024-02-23T06:50:17;6.82;;;4.07;;
84254;SDS011;74400;44.692;18.998;2024-02-23T06:52:43;6.80;;;4.72;;
84254;SDS011;74400;44.692;18.998;2024-02-23T06:55:11;6.38;;;3.88;;
84254;SDS011;74400;44.692;18.998;2024-02-23T07:00:38;3.85;;;3.10;;
84254;SDS011;74400;44.692;18.998;2024-02-23T07:03:04;7.85;;;3.42;;
84254;SDS011;74400;44.692;18.998;2024-02-23T07:05:30;4.72;;;3.40;;
84254;SDS011;74400;44.692;18.998;2024-02-23T07:07:55;4.75;;;3.05;;
84254;SDS011;74400;44.692;18.998;2024-02-23T07:10:21;6.40;;;3.50;;
84254;SDS011;74400;44.692;18.998;2024-02-23T07:12:48;7.40;;;3.80;;
84254;SDS011;74400;44.692;18.998;2024-02-23T07:18:40;7.38;;;3.70;;
84254;SDS011;74400;44.692;18.998;2024-02-23T07:21:06;7.30;;;3.90;;
84254;SDS011;74400;44.692;18.998;2024-02-23T07:23:32;6.30;;;4.03;;
84254;SDS011;74400;44.692;18.998;2024-02-23T07:29:29;6.57;;;3.55;;
84254;SDS011;74400;44.692;18.998;2024-02-23T07:31:55;10.88;;;4.05;;
84254;SDS011;74400;44.692;18.998;2024-02-23T07:34:21;7.68;;;3.83;;
84254;SDS011;74400;44.692;18.998;2024-02-23T07:39:39;4.75;;;4.00;;
84254;SDS011;74400;44.692;18.998;2024-02-23T07:42:16;7.65;;;5.18;;
84254;SDS011;74400;44.692;18.998;2024-02-23T07:44:51;5.20;;;3.88;;
84254;SDS011;74400;44.692;18.998;2024-02-23T07:47:17;5.90;;;3.70;;
84254;SDS011;74400;44.692;18.998;2024-02-23T07:49:42;5.90;;;4.00;;
84254;SDS011;74400;44.692;18.998;2024-02-23T07:52:08;6.10;;;3.60;;
84254;SDS011;74400;44.692;18.998;2024-02-23T07:57:44;4.88;;;3.60;;
84254;SDS011;74400;44.692;18.998;2024-02-23T08:00:10;5.57;;;4.05;;
84254;SDS011;74400;44.692;18.998;2024-02-23T08:02:37;7.80;;;4.93;;
84254;SDS011;74400;44.692;18.998;2024-02-23T08:05:07;5.38;;;3.72;;
84254;SDS011;74400;44.692;18.998;2024-02-23T08:07:35;6.00;;;3.80;;
84254;SDS011;74400;44.692;18.998;2024-02-23T08:10:05;5.38;;;3.58;;
84254;SDS011;74400;44.692;18.998;2024-02-23T08:12:32;4.55;;;3.28;;
84254;SDS011;74400;44.692;18.998;2024-02-23T08:14:58;5.90;;;3.03;;
84254;SDS011;74400;44.692;18.998;2024-02-23T08:17:24;6.68;;;3.63;;
84254;SDS011;74400;44.692;18.998;2024-02-23T08:22:46;5.75;;;3.97;;
84254;SDS011;74400;44.692;18.998;2024-02-23T08:28:24;3.80;;;2.93;;
84254;SDS011;74400;44.692;18.998;2024-02-23T08:30:50;5.30;;;3.58;;
84254;SDS011;74400;44.692;18.998;2024-02-23T08:33:19;8.30;;;3.13;;
84254;SDS011;74400;44.692;18.998;2024-02-23T08:35:47;4.30;;;2.95;;
84254;SDS011;74400;44.692;18.998;2024-02-23T08:38:16;5.50;;;3.20;;
84254;SDS011;74400;44.692;18.998;2024-02-23T08:43:57;6.57;;;4.45;;
84254;SDS011;74400;44.692;18.998;2024-02-23T08:46:23;6.88;;;3.60;;
84254;SDS011;74400;44.692;18.998;2024-02-23T08:48:49;7.55;;;3.00;;
84254;SDS011;74400;44.692;18.998;2024-02-23T08:51:15;5.03;;;3.45;;
84254;SDS011;74400;44.692;18.998;2024-02-23T08:53:41;3.95;;;3.20;;
84254;SDS011;74400;44.692;18.998;2024-02-23T08:56:13;4.20;;;3.22;;
84254;SDS011;74400;44.692;18.998;2024-02-23T08:58:42;7.05;;;4.50;;
84254;SDS011;74400;44.692;18.998;2024-02-23T09:01:12;4.93;;;4.00;;
84254;SDS011;74400;44.692;18.998;2024-02-23T09:03:41;5.32;;;3.35;;
84254;SDS011;74400;44.692;18.998;2024-02-23T09:06:06;4.82;;;3.08;;
84254;SDS011;74400;44.692;18.998;2024-02-23T09:08:32;4.20;;;3.50;;
84254;SDS011;74400;44.692;18.998;2024-02-23T09:10:58;3.60;;;3.20;;
84254;SDS011;74400;44.692;18.998;2024-02-23T09:13:23;5.00;;;3.22;;
84254;SDS011;74400;44.692;18.998;2024-02-23T09:15:50;4.53;;;2.90;;
84254;SDS011;74400;44.692;18.998;2024-02-23T09:18:21;3.47;;;2.70;;
84254;SDS011;74400;44.692;18.998;2024-02-23T09:20:47;4.03;;;2.92;;
84254;SDS011;74400;44.692;18.998;2024-02-23T09:23:13;4.97;;;3.47;;
84254;SDS011;74400;44.692;18.998;2024-02-23T09:25:38;5.50;;;3.28;;
84254;SDS011;74400;44.692;18.998;2024-02-23T09:28:04;3.85;;;2.75;;
84254;SDS011;74400;44.692;18.998;2024-02-23T09:30:30;5.88;;;3.45;;
84254;SDS011;74400;44.692;18.998;2024-02-23T09:42:39;7.85;;;4.03;;
84254;SDS011;74400;44.692;18.998;2024-02-23T09:45:05;6.72;;;2.90;;
84254;SDS011;74400;44.692;18.998;2024-02-23T09:47:32;3.92;;;3.40;;
84254;SDS011;74400;44.692;18.998;2024-02-23T09:50:09;4.50;;;2.63;;
84254;SDS011;74400;44.692;18.998;2024-02-23T09:52:36;4.93;;;3.42;;
84254;SDS011;74400;44.692;18.998;2024-02-23T09:58:10;5.35;;;3.33;;
84254;SDS011;74400;44.692;18.998;2024-02-23T10:00:38;4.75;;;3.10;;
84254;SDS011;74400;44.692;18.998;2024-02-23T10:06:09;4.55;;;3.22;;
84254;SDS011;74400;44.692;18.998;2024-02-23T10:08:35;4.78;;;2.95;;
84254;SDS011;74400;44.692;18.998;2024-02-23T10:11:01;4.78;;;3.20;;
84254;SDS011;74400;44.692;18.998;2024-02-23T10:13:29;5.93;;;3.10;;
84254;SDS011;74400;44.692;18.998;2024-02-23T10:15:55;5.55;;;3.10;;
84254;SDS011;74400;44.692;18.998;2024-02-23T10:18:20;4.75;;;3.15;;
84254;SDS011;74400;44.692;18.998;2024-02-23T10:20:46;4.30;;;3.10;;
84254;SDS011;74400;44.692;18.998;2024-02-23T10:23:12;4.70;;;3.15;;
84254;SDS011;74400;44.692;18.998;2024-02-23T10:25:38;6.78;;;3.35;;
84254;SDS011;74400;44.692;18.998;2024-02-23T10:31:40;3.63;;;3.17;;
84254;SDS011;74400;44.692;18.998;2024-02-23T10:34:08;5.75;;;3.05;;
84254;SDS011;74400;44.692;18.998;2024-02-23T10:36:38;5.20;;;3.17;;
84254;SDS011;74400;44.692;18.998;2024-02-23T10:40:11;3.42;;;2.85;;
84254;SDS011;74400;44.692;18.998;2024-02-23T10:42:42;4.53;;;2.70;;
84254;SDS011;74400;44.692;18.998;2024-02-23T10:48:16;4.18;;;3.00;;
84254;SDS011;74400;44.692;18.998;2024-02-23T10:50:43;3.38;;;2.72;;
84254;SDS011;74400;44.692;18.998;2024-02-23T10:53:09;5.60;;;2.85;;
84254;SDS011;74400;44.692;18.998;2024-02-23T10:55:37;4.18;;;3.10;;
84254;SDS011;74400;44.692;18.998;2024-02-23T10:58:04;3.67;;;2.65;;
84254;SDS011;74400;44.692;18.998;2024-02-23T11:00:36;4.05;;;2.63;;
84254;SDS011;74400;44.692;18.998;2024-02-23T11:03:02;4.20;;;3.17;;
84254;SDS011;74400;44.692;18.998;2024-02-23T11:09:06;3.90;;;2.75;;
84254;SDS011;74400;44.692;18.998;2024-02-23T11:11:36;3.05;;;2.70;;
84254;SDS011;74400;44.692;18.998;2024-02-23T11:14:13;3.67;;;2.95;;
84254;SDS011;74400;44.692;18.998;2024-02-23T11:16:39;4.18;;;2.40;;
84254;SDS011;74400;44.692;18.998;2024-02-23T11:19:08;6.75;;;2.83;;
84254;SDS011;74400;44.692;18.998;2024-02-23T11:21:36;3.42;;;2.67;;
84254;SDS011;74400;44.692;18.998;2024-02-23T11:24:03;4.90;;;2.70;;
84254;SDS011;74400;44.692;18.998;2024-02-23T11:26:30;6.47;;;3.20;;
84254;SDS011;74400;44.692;18.998;2024-02-23T11:28:59;2.53;;;2.33;;
84254;SDS011;74400;44.692;18.998;2024-02-23T11:31:45;5.13;;;2.80;;
84254;SDS011;74400;44.692;18.998;2024-02-23T11:34:11;3.70;;;2.90;;
84254;SDS011;74400;44.692;18.998;2024-02-23T11:36:38;4.03;;;3.20;;
84254;SDS011;74400;44.692;18.998;2024-02-23T11:39:07;4.40;;;3.28;;
84254;SDS011;74400;44.692;18.998;2024-02-23T11:41:38;3.15;;;2.20;;
84254;SDS011;74400;44.692;18.998;2024-02-23T11:44:08;2.63;;;1.83;;
84254;SDS011;74400;44.692;18.998;2024-02-23T11:46:34;4.45;;;2.42;;
84254;SDS011;74400;44.692;18.998;2024-02-23T11:49:00;4.22;;;2.30;;
84254;SDS011;74400;44.692;18.998;2024-02-23T11:54:23;6.78;;;3.45;;
84254;SDS011;74400;44.692;18.998;2024-02-23T11:56:51;7.13;;;2.83;;
84254;SDS011;74400;44.692;18.998;2024-02-23T12:02:17;4.40;;;2.67;;
84254;SDS011;74400;44.692;18.998;2024-02-23T12:04:51;5.35;;;2.80;;
84254;SDS011;74400;44.692;18.998;2024-02-23T12:07:16;4.53;;;2.60;;
84254;SDS011;74400;44.692;18.998;2024-02-23T12:09:43;4.03;;;2.53;;
84254;SDS011;74400;44.692;18.998;2024-02-23T12:12:10;6.63;;;2.70;;
84254;SDS011;74400;44.692;18.998;2024-02-23T12:14:36;5.32;;;2.72;;
84254;SDS011;74400;44.692;18.998;2024-02-23T12:17:03;5.28;;;2.70;;
84254;SDS011;74400;44.692;18.998;2024-02-23T12:19:31;6.95;;;3.00;;
84254;SDS011;74400;44.692;18.998;2024-02-23T12:22:00;4.22;;;2.83;;
84254;SDS011;74400;44.692;18.998;2024-02-23T12:24:26;7.55;;;3.47;;
84254;SDS011;74400;44.692;18.998;2024-02-23T12:26:55;5.57;;;3.25;;
84254;SDS011;74400;44.692;18.998;2024-02-23T12:29:21;4.53;;;3.13;;
84254;SDS011;74400;44.692;18.998;2024-02-23T12:31:48;4.47;;;2.80;;
84254;SDS011;74400;44.692;18.998;2024-02-23T12:34:13;4.97;;;3.00;;
84254;SDS011;74400;44.692;18.998;2024-02-23T12:36:39;6.40;;;3.10;;
84254;SDS011;74400;44.692;18.998;2024-02-23T12:43:17;6.05;;;3.90;;
84254;SDS011;74400;44.692;18.998;2024-02-23T12:45:43;4.68;;;3.10;;
84254;SDS011;74400;44.692;18.998;2024-02-23T12:48:14;5.38;;;3.17;;
84254;SDS011;74400;44.692;18.998;2024-02-23T12:50:41;6.20;;;3.50;;
84254;SDS011;74400;44.692;18.998;2024-02-23T12:53:08;5.13;;;3.30;;
84254;SDS011;74400;44.692;18.998;2024-02-23T12:55:35;4.40;;;3.30;;
84254;SDS011;74400;44.692;18.998;2024-02-23T12:58:02;4.75;;;3.03;;
84254;SDS011;74400;44.692;18.998;2024-02-23T13:00:28;4.13;;;2.67;;
84254;SDS011;74400;44.692;18.998;2024-02-23T13:05:49;5.90;;;2.78;;
84254;SDS011;74400;44.692;18.998;2024-02-23T13:08:18;4.05;;;2.60;;
84254;SDS011;74400;44.692;18.998;2024-02-23T13:10:44;5.63;;;3.78;;
84254;SDS011;74400;44.692;18.998;2024-02-23T13:13:10;4.60;;;2.70;;
84254;SDS011;74400;44.692;18.998;2024-02-23T13:15:38;6.93;;;3.97;;
84254;SDS011;74400;44.692;18.998;2024-02-23T13:18:04;4.05;;;2.97;;
84254;SDS011;74400;44.692;18.998;2024-02-23T13:20:31;5.20;;;3.00;;
84254;SDS011;74400;44.692;18.998;2024-02-23T13:22:56;12.57;;;6.32;;
84254;SDS011;74400;44.692;18.998;2024-02-23T13:25:23;14.65;;;8.05;;
84254;SDS011;74400;44.692;18.998;2024-02-23T13:27:53;14.30;;;7.88;;
84254;SDS011;74400;44.692;18.998;2024-02-23T13:30:18;17.60;;;8.45;;
84254;SDS011;74400;44.692;18.998;2024-02-23T13:32:44;14.38;;;7.75;;
84254;SDS011;74400;44.692;18.998;2024-02-23T13:35:10;10.90;;;6.05;;
84254;SDS011;74400;44.692;18.998;2024-02-23T13:37:36;4.95;;;3.90;;
84254;SDS011;74400;44.692;18.998;2024-02-23T13:43:11;11.95;;;6.28;;
84254;SDS011;74400;44.692;18.998;2024-02-23T13:45:47;13.55;;;7.18;;
84254;SDS011;74400;44.692;18.998;2024-02-23T13:48:17;13.68;;;6.93;;
84254;SDS011;74400;44.692;18.998;2024-02-23T13:50:44;11.63;;;5.20;;
84254;SDS011;74400;44.692;18.998;2024-02-23T13:53:11;12.95;;;6.18;;
84254;SDS011;74400;44.692;18.998;2024-02-23T13:55:39;11.65;;;5.60;;
84254;SDS011;74400;44.692;18.998;2024-02-23T13:58:06;11.02;;;5.53;;
84254;SDS011;74400;44.692;18.998;2024-02-23T14:00:38;9.95;;;5.45;;
84254;SDS011;74400;44.692;18.998;2024-02-23T14:03:06;13.13;;;6.15;;
84254;SDS011;74400;44.692;18.998;2024-02-23T14:05:39;14.02;;;6.32;;
84254;SDS011;74400;44.692;18.998;2024-02-23T14:08:15;10.00;;;6.32;;
84254;SDS011;74400;44.692;18.998;2024-02-23T14:10:41;16.35;;;8.55;;
84254;SDS011;74400;44.692;18.998;2024-02-23T14:13:10;22.17;;;11.25;;
84254;SDS011;74400;44.692;18.998;2024-02-23T14:15:37;52.15;;;21.52;;
84254;SDS011;74400;44.692;18.998;2024-02-23T14:18:03;22.50;;;11.27;;
84254;SDS011;74400;44.692;18.998;2024-02-23T14:20:28;38.60;;;17.77;;
84254;SDS011;74400;44.692;18.998;2024-02-23T14:22:54;15.38;;;8.43;;
84254;SDS011;74400;44.692;18.998;2024-02-23T14:25:20;11.45;;;6.40;;
84254;SDS011;74400;44.692;18.998;2024-02-23T14:27:45;25.48;;;14.18;;
84254;SDS011;74400;44.692;18.998;2024-02-23T14:30:13;32.13;;;16.65;;
84254;SDS011;74400;44.692;18.998;2024-02-23T14:32:39;16.60;;;10.73;;
84254;SDS011;74400;44.692;18.998;2024-02-23T14:35:07;36.60;;;19.33;;
84254;SDS011;74400;44.692;18.998;2024-02-23T14:37:35;17.88;;;10.15;;
84254;SDS011;74400;44.692;18.998;2024-02-23T14:43:45;39.90;;;17.92;;
84254;SDS011;74400;44.692;18.998;2024-02-23T14:46:11;25.10;;;13.40;;
84254;SDS011;74400;44.692;18.998;2024-02-23T14:48:38;27.40;;;12.80;;
84254;SDS011;74400;44.692;18.998;2024-02-23T14:51:04;27.60;;;13.50;;
84254;SDS011;74400;44.692;18.998;2024-02-23T14:53:37;23.55;;;12.60;;
84254;SDS011;74400;44.692;18.998;2024-02-23T14:56:04;9.88;;;6.18;;
84254;SDS011;74400;44.692;18.998;2024-02-23T14:58:31;22.23;;;12.20;;
84254;SDS011;74400;44.692;18.998;2024-02-23T15:00:57;12.80;;;7.22;;
84254;SDS011;74400;44.692;18.998;2024-02-23T15:03:23;11.75;;;6.05;;
84254;SDS011;74400;44.692;18.998;2024-02-23T15:05:49;14.45;;;6.63;;
84254;SDS011;74400;44.692;18.998;2024-02-23T15:08:18;16.83;;;10.13;;
84254;SDS011;74400;44.692;18.998;2024-02-23T15:10:46;28.05;;;14.13;;
84254;SDS011;74400;44.692;18.998;2024-02-23T15:13:26;16.70;;;8.98;;
84254;SDS011;74400;44.692;18.998;2024-02-23T15:15:53;36.22;;;19.10;;
84254;SDS011;74400;44.692;18.998;2024-02-23T15:18:21;16.73;;;8.43;;
84254;SDS011;74400;44.692;18.998;2024-02-23T15:20:53;44.20;;;21.00;;
84254;SDS011;74400;44.692;18.998;2024-02-23T15:23:19;22.25;;;11.65;;
84254;SDS011;74400;44.692;18.998;2024-02-23T15:25:48;24.35;;;12.52;;
84254;SDS011;74400;44.692;18.998;2024-02-23T15:28:14;15.52;;;7.85;;
84254;SDS011;74400;44.692;18.998;2024-02-23T15:30:40;15.63;;;8.90;;
84254;SDS011;74400;44.692;18.998;2024-02-23T15:33:06;12.77;;;6.20;;
84254;SDS011;74400;44.692;18.998;2024-02-23T15:35:32;12.80;;;7.10;;
84254;SDS011;74400;44.692;18.998;2024-02-23T15:37:59;10.43;;;5.65;;
84254;SDS011;74400;44.692;18.998;2024-02-23T15:40:25;7.75;;;4.82;;
84254;SDS011;74400;44.692;18.998;2024-02-23T15:42:52;9.45;;;5.18;;
84254;SDS011;74400;44.692;18.998;2024-02-23T15:45:18;9.18;;;5.10;;
84254;SDS011;74400;44.692;18.998;2024-02-23T15:47:47;12.32;;;7.55;;
84254;SDS011;74400;44.692;18.998;2024-02-23T15:50:16;11.10;;;5.03;;
84254;SDS011;74400;44.692;18.998;2024-02-23T15:52:43;7.40;;;4.15;;
84254;SDS011;74400;44.692;18.998;2024-02-23T15:55:10;8.15;;;4.28;;
84254;SDS011;74400;44.692;18.998;2024-02-23T15:57:37;7.32;;;4.55;;
84254;SDS011;74400;44.692;18.998;2024-02-23T16:00:07;7.70;;;4.53;;
84254;SDS011;74400;44.692;18.998;2024-02-23T16:05:07;13.10;;;6.00;;
84254;SDS011;74400;44.692;18.998;2024-02-23T16:07:33;10.32;;;6.97;;
84254;SDS011;74400;44.692;18.998;2024-02-23T16:10:05;10.38;;;5.30;;